Wetterdaten: Woche 30.07.18 - 05.08.18 (KW31)
Datum Zeit Temp. A. Pool Temp. Temp. 5cm Feuchte A. Luftdruck Regen Wind Richtung Sonnenschein ET UV Solar Taupunkt Windchill Windben Empfang
30.07.2018 00:00 21,9 C 26,7 C 20,6 C 74 % 1012,8 hPa 0,0 l/m 1,9 km/h (1 Bft) S-SW 0,00 h 0,025 mm 0,0 UV-I 0 W/m 17,0 C 21,9 C 3,0 km/h (1 Bft) 96,39 %
30.07.2018 01:00 21,7 C 26,7 C 20,6 C 78 % 1012,7 hPa 0,0 l/m 2,9 km/h (1 Bft) SW 0,00 h 0,000 mm 0,0 UV-I 0 W/m 17,7 C 21,7 C 4,4 km/h (1 Bft) 98,13 %
30.07.2018 02:00 21,1 C 26,2 C 19,9 C 82 % 1012,8 hPa 0,0 l/m 2,3 km/h (1 Bft) SW 0,00 h 0,026 mm 0,0 UV-I 0 W/m 17,9 C 21,1 C 3,6 km/h (1 Bft) 97,39 %
30.07.2018 03:00 20,9 C 26,1 C 19,8 C 83 % 1013,0 hPa 0,0 l/m 3,2 km/h (1 Bft) S-SW 0,00 h 0,000 mm 0,0 UV-I 0 W/m 18,0 C 20,9 C 5,0 km/h (1 Bft) 95,83 %
30.07.2018 04:00 20,7 C 26,1 C 19,8 C 85 % 1013,1 hPa 0,0 l/m 3,2 km/h (1 Bft) S-SW 0,00 h 0,025 mm 0,0 UV-I 0 W/m 18,0 C 20,7 C 4,7 km/h (1 Bft) 96,70 %
30.07.2018 05:00 20,4 C 26,1 C 19,3 C 86 % 1013,5 hPa 0,0 l/m 1,0 km/h (0 Bft) S-SW 0,17 h 0,000 mm 0,0 UV-I 11 W/m 18,0 C 20,4 C 1,9 km/h (1 Bft) 99,15 %
30.07.2018 06:00 19,9 C 26,1 C 19,2 C 88 % 1013,8 hPa 0,0 l/m 0,5 km/h (0 Bft) S 0,30 h 0,000 mm 0,0 UV-I 67 W/m 17,9 C 19,9 C 1,2 km/h (1 Bft) 96,68 %
30.07.2018 07:00 21,9 C 26,1 C 22,4 C 82 % 1014,2 hPa 0,0 l/m 2,2 km/h (1 Bft) S-SW 1,00 h 0,051 mm 0,6 UV-I 228 W/m 18,6 C 21,9 C 3,9 km/h (1 Bft) 95,75 %
30.07.2018 08:00 23,6 C 26,1 C 26,1 C 75 % 1014,5 hPa 0,0 l/m 2,5 km/h (1 Bft) SW 1,00 h 0,152 mm 1,2 UV-I 366 W/m 18,8 C 23,6 C 4,6 km/h (1 Bft) 97,46 %
30.07.2018 09:00 25,4 C 26,1 C 34,2 C 69 % 1014,7 hPa 0,0 l/m 4,4 km/h (1 Bft) NO 1,00 h 0,229 mm 2,3 UV-I 525 W/m 19,2 C 25,4 C 7,3 km/h (2 Bft) 98,07 %
30.07.2018 10:00 26,9 C 26,1 C 37,2 C 62 % 1014,8 hPa 0,0 l/m 4,0 km/h (1 Bft) NO 0,93 h 0,356 mm 3,6 UV-I 648 W/m 19,1 C 26,9 C 7,0 km/h (2 Bft) 97,56 %
30.07.2018 11:00 28,4 C 26,6 C 39,5 C 56 % 1014,8 hPa 0,0 l/m 5,2 km/h (1 Bft) N-NO 1,00 h 0,457 mm 4,8 UV-I 750 W/m 18,9 C 28,4 C 8,9 km/h (2 Bft) 96,74 %
30.07.2018 12:00 29,5 C 26,7 C 41,5 C 51 % 1014,5 hPa 0,0 l/m 4,4 km/h (1 Bft) O 1,00 h 0,533 mm 5,7 UV-I 810 W/m 18,4 C 29,4 C 8,0 km/h (2 Bft) 96,97 %
30.07.2018 13:00 30,6 C 27,2 C 42,4 C 45 % 1014,0 hPa 0,0 l/m 5,4 km/h (1 Bft) O-NO 1,00 h 0,584 mm 5,9 UV-I 833 W/m 17,3 C 30,6 C 9,4 km/h (2 Bft) 98,11 %
30.07.2018 14:00 31,5 C 27,3 C 43,1 C 41 % 1013,6 hPa 0,0 l/m 4,8 km/h (1 Bft) O-NO 0,97 h 0,610 mm 5,1 UV-I 833 W/m 16,8 C 31,5 C 8,8 km/h (2 Bft) 96,13 %
30.07.2018 15:00 31,2 C 27,8 C 36,2 C 44 % 1013,5 hPa 0,0 l/m 8,7 km/h (2 Bft) N-NO 0,40 h 0,610 mm 3,1 UV-I 455 W/m 17,4 C 31,1 C 13,4 km/h (3 Bft) 97,73 %
30.07.2018 16:00 29,9 C 27,8 C 33,5 C 50 % 1013,2 hPa 0,0 l/m 14,9 km/h (3 Bft) O-NO 0,32 h 0,381 mm 2,0 UV-I 327 W/m 18,4 C 29,3 C 21,7 km/h (4 Bft) 96,20 %
30.07.2018 17:00 29,8 C 27,8 C 34,5 C 48 % 1013,1 hPa 0,0 l/m 12,3 km/h (3 Bft) O-NO 0,62 h 0,381 mm 1,4 UV-I 316 W/m 17,7 C 29,3 C 18,2 km/h (3 Bft) 96,44 %
30.07.2018 18:00 29,3 C 27,8 C 33,8 C 51 % 1013,1 hPa 0,0 l/m 10,9 km/h (2 Bft) O 0,90 h 0,304 mm 0,7 UV-I 235 W/m 18,2 C 28,9 C 16,4 km/h (3 Bft) 97,14 %
30.07.2018 19:00 28,5 C 27,5 C 31,4 C 51 % 1013,2 hPa 0,0 l/m 8,3 km/h (2 Bft) O 0,90 h 0,254 mm 0,0 UV-I 108 W/m 17,5 C 28,3 C 12,9 km/h (3 Bft) 98,57 %
30.07.2018 20:00 27,0 C 27,2 C 24,9 C 55 % 1013,4 hPa 0,0 l/m 4,9 km/h (1 Bft) O-SO 0,37 h 0,153 mm 0,0 UV-I 20 W/m 17,1 C 27,0 C 8,1 km/h (2 Bft) 95,86 %
30.07.2018 21:00 25,7 C 27,2 C 22,5 C 57 % 1013,9 hPa 0,0 l/m 4,9 km/h (1 Bft) O-SO 0,00 h 0,051 mm 0,0 UV-I 0 W/m 16,6 C 25,7 C 7,8 km/h (2 Bft) 96,74 %
30.07.2018 22:00 23,6 C 27,2 C 20,5 C 65 % 1014,0 hPa 0,0 l/m 2,8 km/h (1 Bft) O-SO 0,00 h 0,050 mm 0,0 UV-I 0 W/m 16,6 C 23,6 C 4,6 km/h (1 Bft) 97,53 %
30.07.2018 23:00 21,7 C 27,2 C 19,2 C 73 % 1014,2 hPa 0,0 l/m 1,3 km/h (1 Bft) SO 0,00 h 0,026 mm 0,0 UV-I 0 W/m 16,7 C 21,7 C 2,3 km/h (1 Bft) 97,88 %
31.07.2018 00:00 20,6 C 26,9 C 18,5 C 76 % 1014,5 hPa 0,0 l/m 1,5 km/h (1 Bft) O-SO 0,00 h 0,000 mm 0,0 UV-I 0 W/m 16,3 C 20,6 C 2,5 km/h (1 Bft) 94,62 %
31.07.2018 01:00 19,9 C 26,7 C 17,9 C 80 % 1014,7 hPa 0,0 l/m 3,1 km/h (1 Bft) S 0,00 h 0,000 mm 0,0 UV-I 0 W/m 16,2 C 19,9 C 4,3 km/h (1 Bft) 98,10 %
31.07.2018 02:00 19,2 C 26,7 C 17,2 C 84 % 1014,5 hPa 0,0 l/m 0,7 km/h (0 Bft) S-SW 0,00 h 0,025 mm 0,0 UV-I 0 W/m 16,3 C 19,2 C 1,2 km/h (1 Bft) 96,95 %
31.07.2018 03:00 18,4 C 26,7 C 16,6 C 87 % 1014,3 hPa 0,0 l/m 1,3 km/h (1 Bft) S-SW 0,00 h 0,000 mm 0,0 UV-I 0 W/m 16,2 C 18,4 C 1,9 km/h (1 Bft) 97,94 %
31.07.2018 04:00 17,8 C 26,3 C 16,0 C 89 % 1014,2 hPa 0,0 l/m 0,7 km/h (0 Bft) S-SW 0,00 h 0,000 mm 0,0 UV-I 0 W/m 15,9 C 17,8 C 1,2 km/h (1 Bft) 95,47 %
31.07.2018 05:00 17,3 C 26,1 C 15,8 C 90 % 1014,3 hPa 0,0 l/m 1,6 km/h (1 Bft) S-SW 0,17 h 0,000 mm 0,0 UV-I 10 W/m 15,7 C 17,3 C 2,5 km/h (1 Bft) 98,15 %
31.07.2018 06:00 17,8 C 26,1 C 17,2 C 90 % 1014,5 hPa 0,0 l/m 1,8 km/h (1 Bft) SW 1,00 h 0,000 mm 0,0 UV-I 77 W/m 16,1 C 17,8 C 3,1 km/h (1 Bft) 97,12 %
31.07.2018 07:00 20,0 C 26,1 C 20,1 C 84 % 1014,7 hPa 0,0 l/m 2,3 km/h (1 Bft) SW 1,00 h 0,051 mm 0,6 UV-I 214 W/m 17,2 C 20,0 C 3,9 km/h (1 Bft) 95,86 %
31.07.2018 08:00 22,4 C 26,1 C 24,5 C 77 % 1014,9 hPa 0,0 l/m 2,0 km/h (1 Bft) NO 1,00 h 0,127 mm 1,2 UV-I 378 W/m 18,1 C 22,4 C 3,8 km/h (1 Bft) 96,61 %
31.07.2018 09:00 24,7 C 26,1 C 34,6 C 67 % 1014,9 hPa 0,0 l/m 3,3 km/h (1 Bft) N-NW 1,00 h 0,229 mm 2,3 UV-I 533 W/m 18,2 C 24,7 C 5,3 km/h (1 Bft) 98,09 %
31.07.2018 10:00 26,8 C 26,1 C 38,7 C 59 % 1015,0 hPa 0,0 l/m 5,7 km/h (1 Bft) O 1,00 h 0,355 mm 3,6 UV-I 665 W/m 18,1 C 26,8 C 9,9 km/h (2 Bft) 97,84 %
31.07.2018 11:00 28,3 C 26,5 C 40,9 C 54 % 1014,9 hPa 0,0 l/m 5,7 km/h (1 Bft) O 1,00 h 0,458 mm 4,8 UV-I 759 W/m 18,0 C 28,1 C 10,1 km/h (2 Bft) 97,06 %
31.07.2018 12:00 29,9 C 26,7 C 42,9 C 47 % 1014,5 hPa 0,0 l/m 4,1 km/h (1 Bft) O-NO 1,00 h 0,533 mm 5,7 UV-I 818 W/m 17,2 C 29,9 C 7,2 km/h (2 Bft) 95,97 %
31.07.2018 13:00 31,4 C 27,2 C 42,7 C 41 % 1014,2 hPa 0,0 l/m 7,5 km/h (2 Bft) O 1,00 h 0,584 mm 5,8 UV-I 821 W/m 16,4 C 31,3 C 12,5 km/h (3 Bft) 98,38 %
31.07.2018 14:00 31,8 C 27,2 C 43,7 C 38 % 1013,9 hPa 0,0 l/m 5,5 km/h (1 Bft) W-SW 1,00 h 0,635 mm 5,2 UV-I 781 W/m 15,8 C 31,8 C 10,1 km/h (2 Bft) 96,02 %
31.07.2018 15:00 32,6 C 27,8 C 42,7 C 36 % 1013,6 hPa 0,0 l/m 5,4 km/h (1 Bft) NO 1,00 h 0,584 mm 3,9 UV-I 675 W/m 15,5 C 32,6 C 9,8 km/h (2 Bft) 98,20 %
31.07.2018 16:00 32,8 C 27,8 C 42,3 C 35 % 1013,4 hPa 0,0 l/m 6,0 km/h (2 Bft) N-NO 1,00 h 0,534 mm 2,7 UV-I 569 W/m 15,3 C 32,8 C 10,4 km/h (2 Bft) 96,50 %
31.07.2018 17:00 32,9 C 27,8 C 41,4 C 34 % 1013,2 hPa 0,0 l/m 4,8 km/h (1 Bft) O 1,00 h 0,457 mm 1,5 UV-I 416 W/m 15,1 C 32,9 C 7,5 km/h (2 Bft) 97,81 %
31.07.2018 18:00 32,7 C 27,8 C 38,8 C 33 % 1013,1 hPa 0,0 l/m 3,6 km/h (1 Bft) N-NO 1,00 h 0,356 mm 0,7 UV-I 249 W/m 14,3 C 32,7 C 5,9 km/h (2 Bft) 97,58 %
31.07.2018 19:00 31,6 C 27,8 C 34,7 C 38 % 1013,1 hPa 0,0 l/m 2,6 km/h (1 Bft) O-SO 0,73 h 0,228 mm 0,0 UV-I 103 W/m 15,6 C 31,6 C 4,1 km/h (1 Bft) 97,63 %
31.07.2018 20:00 27,7 C 27,9 C 25,0 C 52 % 1013,3 hPa 0,0 l/m 2,4 km/h (1 Bft) S-SW 0,23 h 0,102 mm 0,0 UV-I 17 W/m 17,0 C 27,7 C 3,7 km/h (1 Bft) 96,63 %
31.07.2018 21:00 25,6 C 27,8 C 21,3 C 59 % 1013,6 hPa 0,0 l/m 3,8 km/h (1 Bft) S-SW 0,00 h 0,051 mm 0,0 UV-I 0 W/m 17,0 C 25,6 C 5,4 km/h (1 Bft) 98,57 %
31.07.2018 22:00 24,8 C 27,8 C 22,8 C 60 % 1014,0 hPa 0,0 l/m 5,1 km/h (1 Bft) S-SW 0,00 h 0,025 mm 0,0 UV-I 0 W/m 16,5 C 24,8 C 6,7 km/h (2 Bft) 97,45 %
31.07.2018 23:00 23,6 C 27,8 C 22,0 C 64 % 1014,3 hPa 0,0 l/m 5,7 km/h (1 Bft) S-SW 0,00 h 0,051 mm 0,0 UV-I 0 W/m 16,4 C 23,6 C 7,9 km/h (2 Bft) 96,52 %
01.08.2018 00:00 22,8 C 27,5 C 21,4 C 65 % 1014,2 hPa 0,0 l/m 6,6 km/h (2 Bft) S-SW 0,00 h 0,000 mm 0,0 UV-I 0 W/m 15,9 C 22,6 C 9,2 km/h (2 Bft) 96,57 %
01.08.2018 01:00 22,0 C 27,2 C 20,6 C 68 % 1014,5 hPa 0,0 l/m 6,5 km/h (2 Bft) O 0,00 h 0,051 mm 0,0 UV-I 0 W/m 15,8 C 21,7 C 10,0 km/h (2 Bft) 98,59 %
01.08.2018 02:00 21,3 C 27,2 C 19,7 C 71 % 1014,5 hPa 0,0 l/m 2,6 km/h (1 Bft) O 0,00 h 0,051 mm 0,0 UV-I 0 W/m 15,9 C 21,3 C 4,1 km/h (1 Bft) 96,80 %
01.08.2018 03:00 20,3 C 27,2 C 18,5 C 75 % 1014,3 hPa 0,0 l/m 2,3 km/h (1 Bft) S-SW 0,00 h 0,025 mm 0,0 UV-I 0 W/m 15,8 C 20,3 C 3,8 km/h (1 Bft) 95,85 %
01.08.2018 04:00 19,6 C 27,1 C 17,7 C 78 % 1014,5 hPa 0,0 l/m 2,5 km/h (1 Bft) S-SW 0,00 h 0,025 mm 0,0 UV-I 0 W/m 15,7 C 19,6 C 3,8 km/h (1 Bft) 97,43 %
01.08.2018 05:00 19,0 C 26,7 C 17,3 C 81 % 1014,8 hPa 0,0 l/m 2,4 km/h (1 Bft) S-SW 0,13 h 0,026 mm 0,0 UV-I 11 W/m 15,6 C 19,0 C 3,5 km/h (1 Bft) 98,80 %
01.08.2018 06:00 19,2 C 26,7 C 18,7 C 80 % 1014,9 hPa 0,0 l/m 3,0 km/h (1 Bft) S-SW 0,93 h 0,025 mm 0,0 UV-I 75 W/m 15,7 C 19,2 C 4,5 km/h (1 Bft) 96,34 %
01.08.2018 07:00 21,4 C 26,7 C 21,5 C 73 % 1015,0 hPa 0,0 l/m 2,4 km/h (1 Bft) S-SW 1,00 h 0,051 mm 0,6 UV-I 207 W/m 16,4 C 21,4 C 4,2 km/h (1 Bft) 97,48 %
01.08.2018 08:00 23,7 C 26,7 C 25,7 C 67 % 1015,3 hPa 0,0 l/m 4,6 km/h (1 Bft) O 1,00 h 0,127 mm 1,2 UV-I 369 W/m 17,0 C 23,7 C 7,2 km/h (2 Bft) 97,01 %
01.08.2018 09:00 25,6 C 26,7 C 34,3 C 62 % 1015,5 hPa 0,0 l/m 8,4 km/h (2 Bft) O-NO 1,00 h 0,254 mm 2,3 UV-I 525 W/m 17,7 C 25,2 C 13,1 km/h (3 Bft) 98,71 %
01.08.2018 10:00 27,5 C 26,8 C 37,6 C 57 % 1015,6 hPa 0,0 l/m 9,1 km/h (2 Bft) O-NO 1,00 h 0,381 mm 3,6 UV-I 657 W/m 18,1 C 27,1 C 14,2 km/h (3 Bft) 96,42 %
01.08.2018 11:00 29,0 C 27,2 C 40,8 C 52 % 1015,5 hPa 0,0 l/m 7,2 km/h (2 Bft) O-NO 1,00 h 0,483 mm 5,0 UV-I 754 W/m 18,0 C 28,8 C 12,1 km/h (2 Bft) 96,42 %
01.08.2018 12:00 30,8 C 27,2 C 42,6 C 44 % 1015,2 hPa 0,0 l/m 6,2 km/h (2 Bft) O-NO 1,00 h 0,558 mm 5,8 UV-I 804 W/m 17,1 C 30,7 C 10,7 km/h (2 Bft) 97,08 %
01.08.2018 13:00 31,6 C 27,7 C 44,2 C 41 % 1014,9 hPa 0,0 l/m 4,7 km/h (1 Bft) O-SO 1,00 h 0,610 mm 6,0 UV-I 814 W/m 16,8 C 31,6 C 9,2 km/h (2 Bft) 96,99 %
01.08.2018 14:00 32,3 C 27,8 C 42,9 C 38 % 1014,5 hPa 0,0 l/m 6,8 km/h (2 Bft) NO 1,00 h 0,610 mm 5,2 UV-I 761 W/m 16,2 C 32,3 C 11,5 km/h (2 Bft) 96,85 %
01.08.2018 15:00 33,1 C 28,3 C 43,8 C 35 % 1013,9 hPa 0,0 l/m 6,0 km/h (2 Bft) NO 1,00 h 0,558 mm 4,2 UV-I 707 W/m 15,5 C 33,1 C 10,6 km/h (2 Bft) 97,31 %
01.08.2018 16:00 33,6 C 28,3 C 42,2 C 34 % 1013,6 hPa 0,0 l/m 6,8 km/h (2 Bft) NO 0,93 h 0,559 mm 2,8 UV-I 568 W/m 15,6 C 33,6 C 11,4 km/h (2 Bft) 95,86 %
01.08.2018 17:00 33,4 C 28,3 C 40,0 C 33 % 1013,3 hPa 0,0 l/m 8,7 km/h (2 Bft) N-NO 0,87 h 0,483 mm 1,5 UV-I 402 W/m 15,1 C 33,4 C 14,4 km/h (3 Bft) 97,47 %
01.08.2018 18:00 32,6 C 28,3 C 39,0 C 37 % 1013,1 hPa 0,0 l/m 8,5 km/h (2 Bft) O-NO 1,00 h 0,406 mm 0,7 UV-I 265 W/m 16,2 C 32,6 C 13,3 km/h (3 Bft) 96,79 %
01.08.2018 19:00 31,4 C 28,3 C 34,5 C 41 % 1013,2 hPa 0,0 l/m 5,0 km/h (1 Bft) NO 1,00 h 0,280 mm 0,0 UV-I 107 W/m 16,4 C 31,4 C 7,3 km/h (2 Bft) 96,97 %
01.08.2018 20:00 28,4 C 28,3 C 22,9 C 51 % 1013,4 hPa 0,0 l/m 2,8 km/h (1 Bft) SO 0,03 h 0,127 mm 0,0 UV-I 16 W/m 17,1 C 28,4 C 4,3 km/h (1 Bft) 97,38 %
01.08.2018 21:00 26,2 C 28,3 C 22,4 C 58 % 1013,9 hPa 0,0 l/m 4,4 km/h (1 Bft) O 0,00 h 0,050 mm 0,0 UV-I 0 W/m 17,3 C 26,1 C 7,2 km/h (2 Bft) 98,92 %
01.08.2018 22:00 25,6 C 28,2 C 23,2 C 62 % 1014,5 hPa 0,0 l/m 4,7 km/h (1 Bft) O 0,00 h 0,051 mm 0,0 UV-I 0 W/m 17,7 C 25,6 C 7,5 km/h (2 Bft) 95,48 %
01.08.2018 23:00 24,9 C 27,8 C 23,4 C 65 % 1015,0 hPa 0,0 l/m 7,5 km/h (2 Bft) O-NO 0,00 h 0,051 mm 0,0 UV-I 0 W/m 17,9 C 24,6 C 11,7 km/h (2 Bft) 97,20 %
02.08.2018 00:00 24,5 C 27,8 C 23,0 C 68 % 1015,2 hPa 0,0 l/m 5,3 km/h (1 Bft) O-NO 0,00 h 0,000 mm 0,0 UV-I 0 W/m 18,3 C 24,4 C 8,3 km/h (2 Bft) 97,72 %
02.08.2018 01:00 24,0 C 27,8 C 22,3 C 72 % 1015,1 hPa 0,0 l/m 5,7 km/h (1 Bft) O 0,00 h 0,025 mm 0,0 UV-I 0 W/m 18,5 C 23,9 C 9,8 km/h (2 Bft) 98,27 %
02.08.2018 02:00 22,9 C 27,5 C 19,7 C 76 % 1015,1 hPa 0,0 l/m 1,5 km/h (1 Bft) O-SO 0,00 h 0,026 mm 0,0 UV-I 0 W/m 18,4 C 22,9 C 2,8 km/h (1 Bft) 95,81 %
02.08.2018 03:00 21,5 C 27,2 C 19,2 C 82 % 1015,3 hPa 0,0 l/m 1,3 km/h (1 Bft) O 0,00 h 0,025 mm 0,0 UV-I 0 W/m 18,2 C 21,5 C 2,2 km/h (1 Bft) 97,31 %
02.08.2018 04:00 20,5 C 27,2 C 19,2 C 84 % 1015,4 hPa 0,0 l/m 5,2 km/h (1 Bft) S-SW 0,00 h 0,000 mm 0,0 UV-I 0 W/m 17,6 C 20,3 C 7,5 km/h (2 Bft) 96,68 %
02.08.2018 05:00 20,4 C 27,2 C 19,4 C 81 % 1016,2 hPa 0,0 l/m 5,5 km/h (1 Bft) S-SW 0,13 h 0,026 mm 0,0 UV-I 10 W/m 17,0 C 20,3 C 8,0 km/h (2 Bft) 98,21 %
02.08.2018 06:00 20,9 C 27,2 C 20,4 C 80 % 1016,9 hPa 0,0 l/m 7,2 km/h (2 Bft) W-SW 0,83 h 0,025 mm 0,0 UV-I 66 W/m 17,4 C 20,4 C 11,6 km/h (2 Bft) 96,07 %
02.08.2018 07:00 22,7 C 27,2 C 22,8 C 75 % 1017,4 hPa 0,0 l/m 10,8 km/h (2 Bft) W-SW 1,00 h 0,076 mm 0,6 UV-I 209 W/m 18,1 C 21,4 C 16,7 km/h (3 Bft) 97,06 %
02.08.2018 08:00 24,0 C 27,2 C 25,9 C 70 % 1017,8 hPa 0,0 l/m 10,9 km/h (2 Bft) W-SW 1,00 h 0,178 mm 1,2 UV-I 365 W/m 18,2 C 22,9 C 17,2 km/h (3 Bft) 97,81 %
02.08.2018 09:00 25,4 C 27,2 C 34,1 C 65 % 1017,8 hPa 0,0 l/m 7,0 km/h (2 Bft) W-SW 1,02 h 0,279 mm 2,4 UV-I 536 W/m 18,3 C 25,1 C 11,8 km/h (2 Bft) 97,76 %
02.08.2018 10:00 26,5 C 27,2 C 37,9 C 61 % 1017,8 hPa 0,0 l/m 4,8 km/h (1 Bft) SW 0,98 h 0,381 mm 3,6 UV-I 648 W/m 18,4 C 26,4 C 8,6 km/h (2 Bft) 95,63 %
02.08.2018 11:00 27,8 C 27,2 C 38,7 C 57 % 1017,7 hPa 0,0 l/m 4,6 km/h (1 Bft) SW 1,00 h 0,458 mm 4,4 UV-I 630 W/m 18,6 C 27,7 C 7,8 km/h (2 Bft) 96,81 %
02.08.2018 12:00 28,9 C 27,6 C 39,9 C 55 % 1017,1 hPa 0,0 l/m 6,9 km/h (2 Bft) SW 0,90 h 0,431 mm 5,4 UV-I 745 W/m 18,8 C 28,7 C 11,6 km/h (2 Bft) 97,08 %
02.08.2018 13:00 29,7 C 27,8 C 40,1 C 52 % 1016,9 hPa 0,0 l/m 6,4 km/h (2 Bft) N-NO 0,83 h 0,534 mm 5,4 UV-I 768 W/m 18,6 C 29,6 C 11,2 km/h (2 Bft) 97,52 %
02.08.2018 14:00 31,0 C 28,1 C 41,3 C 48 % 1016,4 hPa 0,0 l/m 6,5 km/h (2 Bft) N-NO 0,90 h 0,533 mm 4,8 UV-I 784 W/m 18,6 C 31,0 C 11,2 km/h (2 Bft) 95,94 %
02.08.2018 15:00 29,8 C 28,3 C 36,2 C 53 % 1016,1 hPa 0,0 l/m 10,8 km/h (2 Bft) O 0,40 h 0,559 mm 2,9 UV-I 451 W/m 19,3 C 29,4 C 15,4 km/h (3 Bft) 97,20 %
02.08.2018 16:00 31,1 C 28,3 C 41,9 C 48 % 1015,7 hPa 0,0 l/m 10,3 km/h (2 Bft) O-NO 1,00 h 0,406 mm 3,0 UV-I 637 W/m 18,7 C 30,9 C 15,4 km/h (3 Bft) 98,43 %
02.08.2018 17:00 29,9 C 28,3 C 34,9 C 50 % 1016,0 hPa 0,0 l/m 6,8 km/h (2 Bft) NO 0,47 h 0,534 mm 1,2 UV-I 267 W/m 18,4 C 29,8 C 11,8 km/h (2 Bft) 94,70 %
02.08.2018 18:00 29,2 C 28,3 C 33,9 C 53 % 1016,1 hPa 0,0 l/m 5,5 km/h (1 Bft) O 0,50 h 0,254 mm 0,7 UV-I 187 W/m 18,5 C 29,1 C 8,7 km/h (2 Bft) 98,79 %
02.08.2018 19:00 27,6 C 28,3 C 26,8 C 57 % 1016,1 hPa 0,0 l/m 5,3 km/h (1 Bft) S-SO 0,00 h 0,178 mm 0,0 UV-I 31 W/m 18,4 C 27,5 C 8,6 km/h (2 Bft) 96,79 %
02.08.2018 20:00 25,9 C 28,3 C 25,0 C 64 % 1016,7 hPa 0,0 l/m 5,2 km/h (1 Bft) SW 0,03 h 0,076 mm 0,0 UV-I 12 W/m 18,6 C 25,9 C 7,4 km/h (2 Bft) 97,16 %
02.08.2018 21:00 24,4 C 28,3 C 23,6 C 71 % 1017,2 hPa 0,0 l/m 7,3 km/h (2 Bft) SW 0,00 h 0,051 mm 0,0 UV-I 0 W/m 18,9 C 24,1 C 11,4 km/h (2 Bft) 96,36 %
02.08.2018 22:00 23,1 C 27,8 C 21,9 C 75 % 1017,4 hPa 0,0 l/m 5,7 km/h (1 Bft) W-SW 0,00 h 0,050 mm 0,0 UV-I 0 W/m 18,5 C 23,1 C 7,9 km/h (2 Bft) 98,55 %
02.08.2018 23:00 22,1 C 27,8 C 21,1 C 82 % 1017,6 hPa 0,0 l/m 7,1 km/h (2 Bft) SW 0,00 h 0,026 mm 0,0 UV-I 0 W/m 18,8 C 21,7 C 10,4 km/h (2 Bft) 97,19 %
03.08.2018 00:00 21,5 C 27,8 C 20,7 C 86 % 1017,8 hPa 0,0 l/m 7,0 km/h (2 Bft) SW 0,00 h 0,000 mm 0,0 UV-I 0 W/m 19,1 C 21,2 C 10,2 km/h (2 Bft) 97,83 %
03.08.2018 01:00 21,2 C 27,5 C 20,5 C 88 % 1017,8 hPa 0,0 l/m 6,6 km/h (2 Bft) SW 0,00 h 0,025 mm 0,0 UV-I 0 W/m 19,0 C 20,9 C 10,1 km/h (2 Bft) 96,05 %
03.08.2018 02:00 20,8 C 27,2 C 20,3 C 89 % 1017,5 hPa 0,0 l/m 6,7 km/h (2 Bft) SW 0,00 h 0,026 mm 0,0 UV-I 0 W/m 18,9 C 20,6 C 9,6 km/h (2 Bft) 99,11 %
03.08.2018 03:00 20,5 C 27,2 C 19,8 C 89 % 1017,5 hPa 0,0 l/m 6,1 km/h (2 Bft) SW 0,00 h 0,025 mm 0,0 UV-I 0 W/m 18,6 C 20,3 C 9,0 km/h (2 Bft) 97,72 %
03.08.2018 04:00 19,8 C 27,2 C 18,9 C 90 % 1017,6 hPa 0,0 l/m 4,6 km/h (1 Bft) SW 0,00 h 0,026 mm 0,0 UV-I 0 W/m 18,1 C 19,8 C 6,6 km/h (2 Bft) 96,41 %
03.08.2018 05:00 19,5 C 27,1 C 18,5 C 91 % 1017,8 hPa 0,0 l/m 3,6 km/h (1 Bft) S-SW 0,10 h 0,000 mm 0,0 UV-I 9 W/m 17,9 C 19,5 C 5,4 km/h (1 Bft) 96,31 %
03.08.2018 06:00 19,7 C 26,7 C 19,4 C 90 % 1018,1 hPa 0,0 l/m 4,0 km/h (1 Bft) S-SW 0,53 h 0,000 mm 0,0 UV-I 64 W/m 18,0 C 19,7 C 5,8 km/h (1 Bft) 99,32 %
03.08.2018 07:00 21,0 C 26,7 C 21,6 C 86 % 1018,3 hPa 0,0 l/m 5,6 km/h (1 Bft) S-SW 1,00 h 0,050 mm 0,5 UV-I 195 W/m 18,6 C 20,9 C 8,6 km/h (2 Bft) 96,79 %
03.08.2018 08:00 23,3 C 26,7 C 25,5 C 79 % 1018,5 hPa 0,0 l/m 4,4 km/h (1 Bft) SW 1,00 h 0,127 mm 1,1 UV-I 353 W/m 19,3 C 23,2 C 7,0 km/h (2 Bft) 95,69 %
03.08.2018 09:00 25,3 C 27,0 C 34,9 C 69 % 1018,5 hPa 0,0 l/m 3,1 km/h (1 Bft) N-NW 1,00 h 0,229 mm 2,2 UV-I 508 W/m 19,1 C 25,3 C 5,2 km/h (1 Bft) 97,63 %
03.08.2018 10:00 27,3 C 27,2 C 37,7 C 61 % 1018,3 hPa 0,0 l/m 5,0 km/h (1 Bft) NO 1,02 h 0,330 mm 3,5 UV-I 638 W/m 19,1 C 27,3 C 8,3 km/h (2 Bft) 98,07 %
03.08.2018 11:00 28,6 C 27,2 C 40,9 C 57 % 1018,1 hPa 0,0 l/m 5,2 km/h (1 Bft) O 0,98 h 0,457 mm 4,6 UV-I 727 W/m 19,1 C 28,5 C 8,8 km/h (2 Bft) 98,05 %
03.08.2018 12:00 29,9 C 27,4 C 42,2 C 52 % 1017,5 hPa 0,0 l/m 5,9 km/h (2 Bft) O-NO 1,00 h 0,508 mm 5,4 UV-I 792 W/m 18,9 C 29,9 C 10,1 km/h (2 Bft) 96,21 %
03.08.2018 13:00 30,2 C 27,8 C 37,7 C 50 % 1017,0 hPa 0,0 l/m 6,5 km/h (2 Bft) O 0,47 h 0,585 mm 3,7 UV-I 510 W/m 18,5 C 30,1 C 11,4 km/h (2 Bft) 97,35 %
03.08.2018 14:00 31,8 C 27,8 C 42,1 C 45 % 1016,7 hPa 0,0 l/m 8,9 km/h (2 Bft) N-NO 0,97 h 0,406 mm 4,9 UV-I 815 W/m 18,2 C 31,7 C 14,5 km/h (3 Bft) 98,51 %
03.08.2018 15:00 30,6 C 28,3 C 36,5 C 50 % 1016,1 hPa 0,0 l/m 13,2 km/h (3 Bft) N 0,77 h 0,635 mm 3,1 UV-I 527 W/m 18,9 C 30,2 C 18,7 km/h (3 Bft) 95,33 %
03.08.2018 16:00 27,6 C 28,3 C 27,9 C 53 % 1016,0 hPa 0,0 l/m 9,9 km/h (2 Bft) N-NO 0,00 h 0,457 mm 0,6 UV-I 106 W/m 17,1 C 27,1 C 14,4 km/h (3 Bft) 98,70 %
03.08.2018 17:00 26,1 C 27,8 C 26,6 C 60 % 1016,0 hPa 0,0 l/m 5,0 km/h (1 Bft) NO 0,00 h 0,153 mm 0,5 UV-I 83 W/m 17,8 C 26,1 C 7,4 km/h (2 Bft) 96,84 %
03.08.2018 18:00 26,1 C 27,8 C 28,9 C 62 % 1015,7 hPa 0,0 l/m 4,7 km/h (1 Bft) O 0,33 h 0,101 mm 0,5 UV-I 153 W/m 18,3 C 26,0 C 7,4 km/h (2 Bft) 98,01 %
03.08.2018 19:00 25,9 C 27,8 C 28,4 C 65 % 1015,6 hPa 0,0 l/m 3,1 km/h (1 Bft) S-SO 0,57 h 0,127 mm 0,0 UV-I 92 W/m 18,6 C 25,9 C 5,2 km/h (1 Bft) 95,43 %
03.08.2018 20:00 24,4 C 27,8 C 21,0 C 69 % 1015,6 hPa 0,0 l/m 1,5 km/h (1 Bft) S-SO 0,00 h 0,076 mm 0,0 UV-I 9 W/m 18,4 C 24,4 C 2,6 km/h (1 Bft) 98,19 %
03.08.2018 21:00 22,8 C 27,2 C 19,8 C 75 % 1015,8 hPa 0,0 l/m 0,5 km/h (0 Bft) O-NO 0,00 h 0,026 mm 0,0 UV-I 0 W/m 18,3 C 22,8 C 1,0 km/h (0 Bft) 98,42 %
03.08.2018 22:00 21,5 C 27,2 C 19,7 C 81 % 1015,9 hPa 0,0 l/m 2,1 km/h (1 Bft) S-SO 0,00 h 0,000 mm 0,0 UV-I 0 W/m 18,0 C 21,5 C 3,4 km/h (1 Bft) 97,76 %
03.08.2018 23:00 21,1 C 27,2 C 18,7 C 82 % 1016,0 hPa 0,0 l/m 0,8 km/h (0 Bft) S-SO 0,00 h 0,000 mm 0,0 UV-I 0 W/m 17,9 C 21,1 C 1,6 km/h (1 Bft) 95,08 %
04.08.2018 00:00 20,1 C 27,2 C 17,9 C 86 % 1015,9 hPa 0,0 l/m 0,8 km/h (0 Bft) S-SO 0,00 h 0,000 mm 0,0 UV-I 0 W/m 17,6 C 20,1 C 1,1 km/h (1 Bft) 98,91 %
04.08.2018 01:00 19,3 C 27,1 C 17,6 C 88 % 1015,7 hPa 0,0 l/m 1,4 km/h (1 Bft) S 0,00 h 0,000 mm 0,0 UV-I 0 W/m 17,3 C 19,3 C 1,8 km/h (1 Bft) 97,23 %
04.08.2018 02:00 18,6 C 26,7 C 16,7 C 90 % 1015,6 hPa 0,0 l/m 0,9 km/h (0 Bft) S 0,00 h 0,000 mm 0,0 UV-I 0 W/m 16,9 C 18,6 C 1,3 km/h (1 Bft) 96,83 %
04.08.2018 03:00 18,4 C 26,7 C 16,9 C 91 % 1015,4 hPa 0,0 l/m 2,2 km/h (1 Bft) S 0,00 h 0,000 mm 0,0 UV-I 0 W/m 16,8 C 18,4 C 3,3 km/h (1 Bft) 96,71 %
04.08.2018 04:00 17,8 C 26,7 C 16,0 C 91 % 1015,2 hPa 0,0 l/m 0,7 km/h (0 Bft) S 0,00 h 0,000 mm 0,0 UV-I 0 W/m 16,2 C 17,8 C 1,3 km/h (1 Bft) 98,34 %
04.08.2018 05:00 17,3 C 26,2 C 15,6 C 91 % 1015,4 hPa 0,0 l/m 0,9 km/h (0 Bft) S 0,07 h 0,000 mm 0,0 UV-I 9 W/m 15,8 C 17,3 C 1,7 km/h (1 Bft) 97,44 %
04.08.2018 06:00 17,4 C 26,1 C 16,4 C 90 % 1015,6 hPa 0,0 l/m 0,7 km/h (0 Bft) S 1,00 h 0,000 mm 0,0 UV-I 69 W/m 15,8 C 17,4 C 1,6 km/h (1 Bft) 96,87 %
04.08.2018 07:00 19,6 C 26,1 C 19,5 C 85 % 1015,8 hPa 0,0 l/m 0,8 km/h (0 Bft) SW 1,00 h 0,051 mm 0,6 UV-I 207 W/m 16,9 C 19,6 C 1,5 km/h (1 Bft) 97,66 %
04.08.2018 08:00 22,2 C 26,2 C 23,9 C 77 % 1015,8 hPa 0,0 l/m 1,4 km/h (1 Bft) SW 1,00 h 0,127 mm 1,2 UV-I 371 W/m 17,9 C 22,2 C 2,7 km/h (1 Bft) 98,26 %
04.08.2018 09:00 24,7 C 26,3 C 34,0 C 71 % 1015,6 hPa 0,0 l/m 4,9 km/h (1 Bft) N-NO 1,00 h 0,228 mm 2,3 UV-I 522 W/m 19,2 C 24,7 C 8,0 km/h (2 Bft) 97,74 %
04.08.2018 10:00 26,5 C 26,7 C 38,5 C 64 % 1015,5 hPa 0,0 l/m 4,8 km/h (1 Bft) O 1,02 h 0,356 mm 3,7 UV-I 654 W/m 19,1 C 26,5 C 7,9 km/h (2 Bft) 96,46 %
04.08.2018 11:00 28,6 C 26,7 C 41,0 C 56 % 1015,3 hPa 0,0 l/m 5,5 km/h (1 Bft) N-NO 0,98 h 0,457 mm 4,9 UV-I 748 W/m 19,0 C 28,6 C 9,3 km/h (2 Bft) 96,36 %
04.08.2018 12:00 30,3 C 27,0 C 43,9 C 45 % 1015,1 hPa 0,0 l/m 5,0 km/h (1 Bft) O 1,00 h 0,534 mm 5,7 UV-I 805 W/m 17,1 C 30,3 C 9,3 km/h (2 Bft) 99,67 %
04.08.2018 13:00 31,5 C 27,2 C 44,2 C 39 % 1014,7 hPa 0,0 l/m 5,6 km/h (1 Bft) NO 1,00 h 0,584 mm 5,8 UV-I 806 W/m 15,7 C 31,5 C 10,2 km/h (2 Bft) 94,89 %
04.08.2018 14:00 32,5 C 27,5 C 44,6 C 33 % 1014,2 hPa 0,0 l/m 6,8 km/h (2 Bft) O 1,00 h 0,609 mm 5,2 UV-I 790 W/m 13,9 C 32,5 C 11,6 km/h (2 Bft) 99,18 %
04.08.2018 15:00 33,2 C 27,8 C 44,2 C 29 % 1013,7 hPa 0,0 l/m 6,2 km/h (2 Bft) O-NO 1,00 h 0,610 mm 4,1 UV-I 699 W/m 12,4 C 33,2 C 10,5 km/h (2 Bft) 96,16 %
04.08.2018 16:00 33,4 C 27,8 C 41,5 C 28 % 1013,5 hPa 0,0 l/m 6,5 km/h (2 Bft) NO 0,93 h 0,559 mm 2,5 UV-I 526 W/m 12,1 C 33,4 C 11,3 km/h (2 Bft) 97,69 %
04.08.2018 17:00 32,4 C 27,8 C 34,9 C 29 % 1013,3 hPa 0,0 l/m 3,2 km/h (1 Bft) N-NO 0,23 h 0,432 mm 1,0 UV-I 200 W/m 12,2 C 32,4 C 5,6 km/h (1 Bft) 97,20 %
04.08.2018 18:00 30,7 C 27,8 C 31,5 C 44 % 1013,4 hPa 0,0 l/m 8,9 km/h (2 Bft) N-NO 0,03 h 0,203 mm 0,6 UV-I 145 W/m 16,9 C 30,5 C 13,6 km/h (3 Bft) 97,31 %
04.08.2018 19:00 29,7 C 27,8 C 31,0 C 50 % 1013,3 hPa 0,0 l/m 4,1 km/h (1 Bft) N 0,47 h 0,203 mm 0,0 UV-I 93 W/m 18,2 C 29,7 C 5,9 km/h (2 Bft) 96,54 %
04.08.2018 20:00 27,4 C 27,8 C 25,0 C 59 % 1013,4 hPa 0,0 l/m 1,1 km/h (1 Bft) O-NO 0,10 h 0,102 mm 0,0 UV-I 12 W/m 18,6 C 27,4 C 2,1 km/h (1 Bft) 97,61 %
04.08.2018 21:00 25,6 C 27,8 C 24,2 C 65 % 1013,7 hPa 0,0 l/m 3,8 km/h (1 Bft) S-SW 0,00 h 0,025 mm 0,0 UV-I 0 W/m 18,6 C 25,6 C 5,0 km/h (1 Bft) 98,60 %
04.08.2018 22:00 25,4 C 27,8 C 24,3 C 65 % 1013,8 hPa 0,0 l/m 5,6 km/h (1 Bft) SW 0,00 h 0,025 mm 0,0 UV-I 0 W/m 18,4 C 25,4 C 7,7 km/h (2 Bft) 95,91 %
04.08.2018 23:00 24,7 C 27,7 C 23,1 C 67 % 1013,8 hPa 0,0 l/m 4,8 km/h (1 Bft) S-SW 0,00 h 0,051 mm 0,0 UV-I 0 W/m 18,0 C 24,7 C 6,6 km/h (2 Bft) 96,57 %
05.08.2018 00:00 23,1 C 27,2 C 21,2 C 70 % 1013,8 hPa 0,0 l/m 4,2 km/h (1 Bft) S-SW 0,00 h 0,000 mm 0,0 UV-I 0 W/m 17,3 C 23,1 C 6,0 km/h (2 Bft) 98,19 %
05.08.2018 01:00 22,1 C 27,2 C 20,4 C 72 % 1013,7 hPa 0,0 l/m 5,1 km/h (1 Bft) SW 0,00 h 0,025 mm 0,0 UV-I 0 W/m 16,8 C 22,1 C 6,8 km/h (2 Bft) 98,31 %
05.08.2018 02:00 21,7 C 27,2 C 20,1 C 71 % 1013,7 hPa 0,0 l/m 5,4 km/h (1 Bft) S-SW 0,00 h 0,026 mm 0,0 UV-I 0 W/m 16,3 C 21,7 C 7,6 km/h (2 Bft) 95,51 %
05.08.2018 03:00 21,0 C 26,9 C 19,2 C 75 % 1013,7 hPa 0,0 l/m 4,0 km/h (1 Bft) SW 0,00 h 0,025 mm 0,0 UV-I 0 W/m 16,5 C 21,0 C 5,7 km/h (1 Bft) 97,77 %
05.08.2018 04:00 20,2 C 26,7 C 19,1 C 77 % 1013,8 hPa 0,0 l/m 5,6 km/h (1 Bft) S-SW 0,00 h 0,026 mm 0,0 UV-I 0 W/m 15,9 C 20,1 C 7,8 km/h (2 Bft) 97,09 %
05.08.2018 05:00 19,8 C 26,7 C 18,8 C 77 % 1013,7 hPa 0,0 l/m 5,1 km/h (1 Bft) S-SW 0,07 h 0,025 mm 0,0 UV-I 8 W/m 15,7 C 19,8 C 7,3 km/h (2 Bft) 98,15 %
05.08.2018 06:00 19,6 C 26,7 C 19,0 C 78 % 1014,0 hPa 0,0 l/m 3,4 km/h (1 Bft) S-SW 0,47 h 0,025 mm 0,0 UV-I 58 W/m 15,6 C 19,6 C 4,9 km/h (1 Bft) 96,05 %
05.08.2018 07:00 21,4 C 26,2 C 21,7 C 73 % 1014,3 hPa 0,0 l/m 5,1 km/h (1 Bft) SW 1,02 h 0,051 mm 0,5 UV-I 184 W/m 16,2 C 21,4 C 7,8 km/h (2 Bft) 97,65 %
05.08.2018 08:00 23,8 C 26,7 C 25,7 C 67 % 1014,5 hPa 0,0 l/m 6,9 km/h (2 Bft) W-SW 0,98 h 0,127 mm 1,1 UV-I 346 W/m 17,2 C 23,5 C 11,1 km/h (2 Bft) 96,49 %
05.08.2018 09:00 26,1 C 26,7 C 34,6 C 61 % 1014,6 hPa 0,0 l/m 5,4 km/h (1 Bft) W-SW 1,00 h 0,254 mm 2,1 UV-I 494 W/m 18,0 C 26,0 C 9,0 km/h (2 Bft) 99,04 %
05.08.2018 10:00 28,0 C 26,7 C 38,9 C 57 % 1014,6 hPa 0,0 l/m 5,1 km/h (1 Bft) W-SW 1,00 h 0,356 mm 3,3 UV-I 622 W/m 18,5 C 27,9 C 8,8 km/h (2 Bft) 95,87 %
05.08.2018 11:00 30,1 C 26,7 C 41,2 C 51 % 1014,5 hPa 0,0 l/m 5,9 km/h (2 Bft) N-NW 1,00 h 0,457 mm 4,4 UV-I 720 W/m 18,8 C 30,1 C 11,0 km/h (2 Bft) 97,32 %
05.08.2018 12:00 31,4 C 26,7 C 41,9 C 47 % 1014,1 hPa 0,0 l/m 7,0 km/h (2 Bft) N 0,97 h 0,533 mm 5,0 UV-I 753 W/m 18,8 C 31,3 C 12,9 km/h (3 Bft) 97,02 %
05.08.2018 13:00 31,6 C 27,2 C 39,3 C 45 % 1013,6 hPa 0,0 l/m 8,6 km/h (2 Bft) N 0,57 h 0,559 mm 3,9 UV-I 605 W/m 18,3 C 31,5 C 14,5 km/h (3 Bft) 97,63 %
05.08.2018 14:00 29,8 C 27,2 C 35,5 C 51 % 1013,6 hPa 0,0 l/m 12,4 km/h (3 Bft) NO 0,47 h 0,483 mm 3,6 UV-I 483 W/m 18,5 C 29,3 C 18,2 km/h (3 Bft) 96,33 %
05.08.2018 15:00 30,8 C 27,2 C 38,2 C 48 % 1013,5 hPa 0,0 l/m 12,8 km/h (3 Bft) O 0,53 h 0,432 mm 2,7 UV-I 500 W/m 18,5 C 30,4 C 19,8 km/h (4 Bft) 98,47 %
05.08.2018 16:00 27,1 C 27,2 C 30,3 C 56 % 1013,7 hPa 0,0 l/m 12,9 km/h (3 Bft) N-NO 0,25 h 0,457 mm 1,6 UV-I 288 W/m 17,6 C 26,2 C 19,8 km/h (4 Bft) 97,71 %
05.08.2018 17:00 26,8 C 27,2 C 33,6 C 60 % 1013,9 hPa 0,0 l/m 11,7 km/h (2 Bft) S 0,85 h 0,279 mm 1,3 UV-I 377 W/m 18,5 C 26,0 C 18,2 km/h (3 Bft) 96,21 %
05.08.2018 18:00 26,1 C 27,5 C 31,1 C 64 % 1014,1 hPa 0,0 l/m 8,4 km/h (2 Bft) S-SW 0,73 h 0,305 mm 0,6 UV-I 205 W/m 18,8 C 25,7 C 13,7 km/h (3 Bft) 96,92 %
05.08.2018 19:00 24,7 C 27,8 C 26,1 C 69 % 1014,1 hPa 0,0 l/m 6,1 km/h (2 Bft) S-SW 0,40 h 0,178 mm 0,0 UV-I 68 W/m 18,6 C 24,6 C 10,2 km/h (2 Bft) 99,38 %
05.08.2018 20:00 23,8 C 27,8 C 22,5 C 73 % 1014,4 hPa 0,0 l/m 4,9 km/h (1 Bft) SW 0,40 h 0,076 mm 0,0 UV-I 20 W/m 18,6 C 23,8 C 7,5 km/h (2 Bft) 96,82 %
05.08.2018 21:00 22,5 C 27,8 C 20,1 C 79 % 1014,8 hPa 0,0 l/m 3,9 km/h (1 Bft) S 0,00 h 0,025 mm 0,0 UV-I 0 W/m 18,6 C 22,5 C 5,9 km/h (2 Bft) 96,58 %
05.08.2018 22:00 21,4 C 27,2 C 20,0 C 82 % 1015,1 hPa 0,0 l/m 3,5 km/h (1 Bft) NO 0,00 h 0,026 mm 0,0 UV-I 0 W/m 18,3 C 21,4 C 5,0 km/h (1 Bft) 97,39 %
05.08.2018 23:00 20,6 C 27,2 C 19,2 C 85 % 1015,4 hPa 0,0 l/m 2,9 km/h (1 Bft) S-SO 0,00 h 0,025 mm 0,0 UV-I 0 W/m 18,0 C 20,6 C 4,7 km/h (1 Bft) 98,58 %
Min-Datum _ 31.07.18 30.07.18 04.08.18 04.08.18 30.07.18 - 30.07.18 - - - - - 04.08.18 31.07.18 30.07.18 31.07.18
_ Min-Zeit 05:50 02:14 04:56 15:36 00:32 - 00:46 - - - - - 15:52 05:50 00:46 16:40
Minimum _ 17,0 C 26,1 C 15,0 C 26 % 1012,7 hPa - 0,0 km/h (0 Bft) - - - - - 11,0 C 17,0 C 0,0 km/h (0 Bft) 83,33 %
Max-Datum _ 01.08.18 01.08.18 04.08.18 04.08.18 03.08.18 30.07.18 05.08.18 - 31.07.18 31.07.18 01.08.18 03.08.18 30.07.18 01.08.18 05.08.18 30.07.18
_ Max-Zeit 16:28 16:16 14:18 02:06 08:10 00:00 15:56 - 14:50 14:00 12:54 14:06 09:34 16:28 15:56 00:00
Maximum _ 34,0 C 28,9 C 46,1 C 92 % 1018,6 hPa 0,0 l/m 28,8 km/h
O (4 Bft)
- 0,08 h 0,635 mm 6,1 UV-I 967 W/m 20,1 C 34,0 C 41,8 km/h
O-NO (6 Bft)
100,00 %
Durchschnitt _ 25,3 C 27,2 C 28,4 C 64 % 1015,0 hPa #0,0 l/m 5,1 km/h (1 Bft) S-SW #83:10 h #35,916 mm 2,9 UV-I 402 W/m 17,4 C 25,2 C 8,1 km/h (2 Bft) 97,21 %